Active alerts

Gallatin County, MT
  Details for Gallatin County, MT Winter Storm Warning
Gallatin County, MT
  Details for Gallatin County, MT Hydrologic Outlook

Thunder radar more information blitzortung!


Rain radar more information rain snow radar



Nearby METAR Reports

   
KNUQ - Mountain View, CA
Updated: Nov 21 2019 8:56 am
NOT Current
  
  
   Wind: Calm
Wind: Calm
Barometer: 29.86 inHg
KNUQ 211656Z AUTO A2986 RMK AO2 SLP116 PWINO $
KSFO - San Francisco, CA
Updated: Mar 29 2020 4:56 am
Overcast  
Overcast  
   Wind: SE 5.8 mph
Wind: SE 5.8 mph
Temperature: 51.8°F
Dew Point: 46.4°F
Humidity: 82%
Barometer: 30.08 inHg
Clouds: Overcast
Visibility: 10 mi
Cloud details: Few Clouds 3800 ft,
Mostly Cloudy 5000 ft,
Overcast 6000 ft
KSFO 291156Z 13005KT 10SM FEW038 BKN050 OVC060 11/08 A3008 RMK AO2 SLP187 70004 T01110078 10122 20111 58014
KSJC - San Jose, CA
Updated: Mar 29 2020 4:53 am
Overcast  
Overcast  
   Wind: SE 6.9 mph
Wind: SE 6.9 mph
Temperature: 50°F
Wind Chill: 46.4°F
Dew Point: 46.4°F
Humidity: 88%
Barometer: 30.1 inHg
Clouds: Overcast
Visibility: 10 mi
Cloud details: Few Clouds 3400 ft,
Overcast 6000 ft
KSJC 291153Z AUTO 14006KT 10SM FEW034 OVC060 10/08 A3010 RMK AO2 SLP191 70005 T01000078 10111 20100 57014
KOAK - Oakland, CA
Updated: Mar 29 2020 4:53 am
Overcast  
Overcast  
   Wind: SE 8.1 mph
Wind: SE 8.1 mph
Temperature: 53.6°F
Dew Point: 48.2°F
Humidity: 82%
Barometer: 30.09 inHg
Clouds: Overcast
Visibility: 10 mi
Cloud details: Mostly Cloudy 2300 ft,
Overcast 3100 ft
KOAK 291153Z 13007KT 10SM BKN023 OVC031 12/09 A3009 RMK AO2 SLP190 70017 T01220089 10128 20122 58014 $
KMRY - Monterey, CA
Updated: Mar 29 2020 4:54 am
Overcast  
Overcast  
   Wind: SE 5.8 mph
Wind: SE 5.8 mph
Temperature: 51.8°F
Dew Point: 46.4°F
Humidity: 82%
Barometer: 30.11 inHg
Clouds: Overcast
Visibility: 10 mi
Cloud details: Overcast 5500 ft
KMRY 291154Z AUTO 14005KT 10SM OVC055 11/08 A3011 RMK AO2 SLP207 60000 70002 T01110083 10117 20111 57014
KWYS - West Yellowstone, MT
Updated: Mar 29 2020 5:05 am
Overcast  
Overcast  
   Wind: SW 5.8 mph
Wind: SW 5.8 mph
Temperature: 28.4°F
Wind Chill: 21.2°F
Dew Point: 26.6°F
Humidity: 93%
Barometer: 29.98 inHg
Clouds: Overcast
Visibility: 10 mi
Cloud details: Mostly Cloudy 1300 ft,
Overcast 2100 ft
KWYS 291205Z AUTO 23005KT 10SM BKN013 OVC021 M02/M03 A2998 RMK AO2
KDCA - Washington, DC
Updated: Mar 29 2020 5:04 am
Mist, Overcast  
Mist, Overcast  
   Wind: ENE 3.5 mph
Wind: ENE 3.5 mph
Temperature: 51.8°F
Dew Point: 51.8°F
Humidity: 100%
Barometer: 29.97 inHg
Clouds: Overcast
Visibility: 3 mi
Cloud details: Overcast 500 ft
KDCA 291204Z 06003KT 3SM BR OVC005 11/11 A2997 RMK AO2 T01110106
KIAD - Washington Dulles, VA
Updated: Mar 29 2020 5:24 am
Mist, Overcast  
Mist, Overcast  
   Wind: East 4.6 mph
Wind: East 4.6 mph
Temperature: 51.8°F
Dew Point: 48.2°F
Humidity: 88%
Barometer: 29.96 inHg
Clouds: Overcast
Visibility: 1 mi
Cloud details: Overcast 300 ft
KIAD 291224Z 08004KT 1SM R01R/P6000FT BR OVC003 11/09 A2996 RMK AO2 SFC VIS 2 T01060094
KMIA - Miami Beach, FL
Updated: Mar 29 2020 4:53 am
Partly Cloudy  
Partly Cloudy  
   Wind: ESE 6.9 mph
Wind: ESE 6.9 mph
Temperature: 75.2°F
Dew Point: 68°F
Humidity: 78%
Barometer: 30.13 inHg
Clouds: Partly Cloudy
Visibility: 10 mi
Cloud details: Partly Cloudy 2500 ft
KMIA 291153Z 12006KT 10SM SCT025 24/20 A3013 RMK AO2 SLP204 T02440200 10256 20233 53023 $

Script developed by  Saratoga-weather.org Adapted for the template by  Weerstation Leuven

You find our weather info also at:

Weather Underground

Citizen Weather Observer Program (CWOP)

Equipment we use:

Weather-station
Ambient WS-1400-IP

Weather-program
Meteobridge

Weather-server
TP-LINK TL-MR3020

Ambient WS-1400-IP

Meteobridge

TP-LINK TL-MR3020